sensor_id;sensor_type;location;lat;lon;timestamp;P1;durP1;ratioP1;P2;durP2;ratioP2
33573;SDS011;20085;50.832;4.392;2022-09-25T00:01:22;15.82;;;3.88;;
33573;SDS011;20085;50.832;4.392;2022-09-25T00:03:48;13.45;;;3.58;;
33573;SDS011;20085;50.832;4.392;2022-09-25T00:06:18;11.13;;;3.65;;
33573;SDS011;20085;50.832;4.392;2022-09-25T00:08:46;12.40;;;4.15;;
33573;SDS011;20085;50.832;4.392;2022-09-25T00:13:39;12.98;;;3.50;;
33573;SDS011;20085;50.832;4.392;2022-09-25T00:16:08;14.07;;;3.42;;
33573;SDS011;20085;50.832;4.392;2022-09-25T00:18:35;13.73;;;3.67;;
33573;SDS011;20085;50.832;4.392;2022-09-25T00:21:19;9.95;;;3.08;;
33573;SDS011;20085;50.832;4.392;2022-09-25T00:23:45;13.65;;;3.35;;
33573;SDS011;20085;50.832;4.392;2022-09-25T00:26:12;9.90;;;3.40;;
33573;SDS011;20085;50.832;4.392;2022-09-25T00:28:39;11.18;;;3.22;;
33573;SDS011;20085;50.832;4.392;2022-09-25T00:31:07;13.40;;;3.17;;
33573;SDS011;20085;50.832;4.392;2022-09-25T00:33:33;10.48;;;2.90;;
33573;SDS011;20085;50.832;4.392;2022-09-25T00:36:00;13.93;;;3.35;;
33573;SDS011;20085;50.832;4.392;2022-09-25T00:38:31;19.38;;;3.70;;
33573;SDS011;20085;50.832;4.392;2022-09-25T00:40:58;18.17;;;4.30;;
33573;SDS011;20085;50.832;4.392;2022-09-25T00:46:10;14.45;;;4.05;;
33573;SDS011;20085;50.832;4.392;2022-09-25T00:48:49;18.80;;;4.15;;
33573;SDS011;20085;50.832;4.392;2022-09-25T00:51:23;15.85;;;4.03;;
33573;SDS011;20085;50.832;4.392;2022-09-25T00:53:53;13.05;;;3.72;;
33573;SDS011;20085;50.832;4.392;2022-09-25T00:56:25;16.95;;;4.07;;
33573;SDS011;20085;50.832;4.392;2022-09-25T00:58:55;13.07;;;3.60;;
33573;SDS011;20085;50.832;4.392;2022-09-25T01:01:21;16.92;;;4.30;;
33573;SDS011;20085;50.832;4.392;2022-09-25T01:03:47;13.32;;;3.97;;
33573;SDS011;20085;50.832;4.392;2022-09-25T01:06:13;12.55;;;3.20;;
33573;SDS011;20085;50.832;4.392;2022-09-25T01:08:40;12.45;;;3.50;;
33573;SDS011;20085;50.832;4.392;2022-09-25T01:11:08;15.27;;;3.38;;
33573;SDS011;20085;50.832;4.392;2022-09-25T01:13:34;11.00;;;3.15;;
33573;SDS011;20085;50.832;4.392;2022-09-25T01:18:44;10.68;;;3.20;;
33573;SDS011;20085;50.832;4.392;2022-09-25T01:24:03;12.25;;;3.53;;
33573;SDS011;20085;50.832;4.392;2022-09-25T01:26:43;8.63;;;2.97;;
33573;SDS011;20085;50.832;4.392;2022-09-25T01:29:19;15.70;;;3.80;;
33573;SDS011;20085;50.832;4.392;2022-09-25T01:34:28;13.88;;;2.70;;
33573;SDS011;20085;50.832;4.392;2022-09-25T01:37:16;14.77;;;2.90;;
33573;SDS011;20085;50.832;4.392;2022-09-25T01:39:53;13.70;;;2.73;;
33573;SDS011;20085;50.832;4.392;2022-09-25T01:42:27;12.07;;;2.85;;
33573;SDS011;20085;50.832;4.392;2022-09-25T01:45:00;11.88;;;2.63;;
33573;SDS011;20085;50.832;4.392;2022-09-25T01:47:30;11.35;;;2.92;;
33573;SDS011;20085;50.832;4.392;2022-09-25T01:50:03;15.70;;;3.03;;
33573;SDS011;20085;50.832;4.392;2022-09-25T01:52:50;13.75;;;2.53;;
33573;SDS011;20085;50.832;4.392;2022-09-25T01:55:53;8.52;;;2.50;;
33573;SDS011;20085;50.832;4.392;2022-09-25T02:00:43;13.30;;;2.72;;
33573;SDS011;20085;50.832;4.392;2022-09-25T02:03:19;14.55;;;3.13;;
33573;SDS011;20085;50.832;4.392;2022-09-25T02:05:56;10.70;;;2.85;;
33573;SDS011;20085;50.832;4.392;2022-09-25T02:08:27;12.27;;;3.00;;
33573;SDS011;20085;50.832;4.392;2022-09-25T02:10:59;17.42;;;3.13;;
33573;SDS011;20085;50.832;4.392;2022-09-25T02:13:30;12.07;;;2.70;;
33573;SDS011;20085;50.832;4.392;2022-09-25T02:16:03;19.23;;;3.15;;
33573;SDS011;20085;50.832;4.392;2022-09-25T02:18:32;9.63;;;2.95;;
33573;SDS011;20085;50.832;4.392;2022-09-25T02:24:07;11.63;;;2.70;;
33573;SDS011;20085;50.832;4.392;2022-09-25T02:26:42;11.95;;;2.58;;
33573;SDS011;20085;50.832;4.392;2022-09-25T02:29:07;15.60;;;3.17;;
33573;SDS011;20085;50.832;4.392;2022-09-25T02:31:34;11.38;;;3.08;;
33573;SDS011;20085;50.832;4.392;2022-09-25T02:34:15;12.48;;;2.97;;
33573;SDS011;20085;50.832;4.392;2022-09-25T02:36:41;15.80;;;2.80;;
33573;SDS011;20085;50.832;4.392;2022-09-25T02:39:08;12.70;;;2.90;;
33573;SDS011;20085;50.832;4.392;2022-09-25T02:47:43;13.65;;;2.95;;
33573;SDS011;20085;50.832;4.392;2022-09-25T02:53:47;14.48;;;2.65;;
33573;SDS011;20085;50.832;4.392;2022-09-25T02:56:23;10.60;;;2.30;;
33573;SDS011;20085;50.832;4.392;2022-09-25T02:58:50;12.02;;;2.53;;
33573;SDS011;20085;50.832;4.392;2022-09-25T03:01:19;8.68;;;2.55;;
33573;SDS011;20085;50.832;4.392;2022-09-25T03:03:48;11.15;;;2.85;;
33573;SDS011;20085;50.832;4.392;2022-09-25T03:06:19;10.60;;;2.78;;
33573;SDS011;20085;50.832;4.392;2022-09-25T03:08:48;14.20;;;2.97;;
33573;SDS011;20085;50.832;4.392;2022-09-25T03:11:18;13.05;;;2.80;;
33573;SDS011;20085;50.832;4.392;2022-09-25T03:13:45;16.17;;;2.53;;
33573;SDS011;20085;50.832;4.392;2022-09-25T03:16:34;10.60;;;2.75;;
33573;SDS011;20085;50.832;4.392;2022-09-25T03:19:13;11.05;;;2.97;;
33573;SDS011;20085;50.832;4.392;2022-09-25T03:21:40;13.90;;;2.90;;
33573;SDS011;20085;50.832;4.392;2022-09-25T03:24:06;13.65;;;2.50;;
33573;SDS011;20085;50.832;4.392;2022-09-25T03:26:31;10.63;;;2.83;;
33573;SDS011;20085;50.832;4.392;2022-09-25T03:28:57;13.50;;;3.25;;
33573;SDS011;20085;50.832;4.392;2022-09-25T03:31:26;16.75;;;3.40;;
33573;SDS011;20085;50.832;4.392;2022-09-25T03:33:55;12.18;;;2.85;;
33573;SDS011;20085;50.832;4.392;2022-09-25T03:36:22;11.35;;;2.90;;
33573;SDS011;20085;50.832;4.392;2022-09-25T03:38:50;14.77;;;3.40;;
33573;SDS011;20085;50.832;4.392;2022-09-25T03:41:19;12.32;;;3.20;;
33573;SDS011;20085;50.832;4.392;2022-09-25T03:43:46;11.80;;;2.75;;
33573;SDS011;20085;50.832;4.392;2022-09-25T03:46:15;12.57;;;3.28;;
33573;SDS011;20085;50.832;4.392;2022-09-25T03:48:42;10.43;;;3.33;;
33573;SDS011;20085;50.832;4.392;2022-09-25T03:51:08;10.52;;;3.53;;
33573;SDS011;20085;50.832;4.392;2022-09-25T03:53:34;9.57;;;3.60;;
33573;SDS011;20085;50.832;4.392;2022-09-25T03:56:04;12.50;;;3.90;;
33573;SDS011;20085;50.832;4.392;2022-09-25T03:58:33;11.77;;;3.97;;
33573;SDS011;20085;50.832;4.392;2022-09-25T04:00:58;14.95;;;3.70;;
33573;SDS011;20085;50.832;4.392;2022-09-25T04:03:26;18.80;;;3.83;;
33573;SDS011;20085;50.832;4.392;2022-09-25T04:05:53;11.63;;;3.47;;
33573;SDS011;20085;50.832;4.392;2022-09-25T04:08:23;14.55;;;3.83;;
33573;SDS011;20085;50.832;4.392;2022-09-25T04:10:51;12.90;;;3.55;;
33573;SDS011;20085;50.832;4.392;2022-09-25T04:13:18;10.50;;;3.83;;
33573;SDS011;20085;50.832;4.392;2022-09-25T04:15:44;12.38;;;3.78;;
33573;SDS011;20085;50.832;4.392;2022-09-25T04:18:10;11.60;;;3.40;;
33573;SDS011;20085;50.832;4.392;2022-09-25T04:20:35;10.35;;;3.25;;
33573;SDS011;20085;50.832;4.392;2022-09-25T04:23:02;11.32;;;3.40;;
33573;SDS011;20085;50.832;4.392;2022-09-25T04:25:28;14.23;;;3.60;;
33573;SDS011;20085;50.832;4.392;2022-09-25T04:27:54;12.70;;;3.53;;
33573;SDS011;20085;50.832;4.392;2022-09-25T04:30:24;13.00;;;4.03;;
33573;SDS011;20085;50.832;4.392;2022-09-25T04:32:51;12.43;;;3.70;;
33573;SDS011;20085;50.832;4.392;2022-09-25T04:35:36;14.32;;;3.80;;
33573;SDS011;20085;50.832;4.392;2022-09-25T04:38:01;13.75;;;3.80;;
33573;SDS011;20085;50.832;4.392;2022-09-25T04:40:27;15.85;;;3.25;;
33573;SDS011;20085;50.832;4.392;2022-09-25T04:42:59;13.20;;;4.03;;
33573;SDS011;20085;50.832;4.392;2022-09-25T04:45:26;20.00;;;3.58;;
33573;SDS011;20085;50.832;4.392;2022-09-25T04:47:55;15.18;;;3.90;;
33573;SDS011;20085;50.832;4.392;2022-09-25T04:50:23;7.55;;;3.38;;
33573;SDS011;20085;50.832;4.392;2022-09-25T04:52:49;16.17;;;3.78;;
33573;SDS011;20085;50.832;4.392;2022-09-25T04:55:16;13.23;;;4.07;;
33573;SDS011;20085;50.832;4.392;2022-09-25T04:57:42;16.00;;;3.92;;
33573;SDS011;20085;50.832;4.392;2022-09-25T05:00:08;14.70;;;4.28;;
33573;SDS011;20085;50.832;4.392;2022-09-25T05:02:34;13.30;;;3.75;;
33573;SDS011;20085;50.832;4.392;2022-09-25T05:05:00;14.98;;;4.32;;
33573;SDS011;20085;50.832;4.392;2022-09-25T05:07:26;16.02;;;4.20;;
33573;SDS011;20085;50.832;4.392;2022-09-25T05:09:51;15.27;;;4.40;;
33573;SDS011;20085;50.832;4.392;2022-09-25T05:12:17;13.80;;;4.05;;
33573;SDS011;20085;50.832;4.392;2022-09-25T05:14:44;12.60;;;4.07;;
33573;SDS011;20085;50.832;4.392;2022-09-25T05:17:09;14.77;;;4.32;;
33573;SDS011;20085;50.832;4.392;2022-09-25T05:19:35;15.65;;;3.83;;
33573;SDS011;20085;50.832;4.392;2022-09-25T05:22:01;16.33;;;4.47;;
33573;SDS011;20085;50.832;4.392;2022-09-25T05:24:27;14.90;;;5.22;;
33573;SDS011;20085;50.832;4.392;2022-09-25T05:26:53;14.85;;;5.13;;
33573;SDS011;20085;50.832;4.392;2022-09-25T05:29:18;18.65;;;4.68;;
33573;SDS011;20085;50.832;4.392;2022-09-25T05:31:45;13.70;;;4.43;;
33573;SDS011;20085;50.832;4.392;2022-09-25T05:34:13;19.88;;;4.97;;
33573;SDS011;20085;50.832;4.392;2022-09-25T05:36:38;12.82;;;4.10;;
33573;SDS011;20085;50.832;4.392;2022-09-25T05:39:04;18.85;;;6.60;;
33573;SDS011;20085;50.832;4.392;2022-09-25T05:41:29;17.42;;;5.07;;
33573;SDS011;20085;50.832;4.392;2022-09-25T05:43:57;13.90;;;5.10;;
33573;SDS011;20085;50.832;4.392;2022-09-25T05:46:23;15.00;;;4.70;;
33573;SDS011;20085;50.832;4.392;2022-09-25T05:48:48;15.85;;;5.05;;
33573;SDS011;20085;50.832;4.392;2022-09-25T05:51:14;15.73;;;4.60;;
33573;SDS011;20085;50.832;4.392;2022-09-25T05:53:39;14.30;;;5.05;;
33573;SDS011;20085;50.832;4.392;2022-09-25T05:56:06;14.38;;;5.25;;
33573;SDS011;20085;50.832;4.392;2022-09-25T05:58:32;16.67;;;5.35;;
33573;SDS011;20085;50.832;4.392;2022-09-25T06:00:59;15.60;;;4.60;;
33573;SDS011;20085;50.832;4.392;2022-09-25T06:03:27;12.68;;;4.80;;
33573;SDS011;20085;50.832;4.392;2022-09-25T06:05:54;14.63;;;4.53;;
33573;SDS011;20085;50.832;4.392;2022-09-25T06:08:23;17.75;;;5.00;;
33573;SDS011;20085;50.832;4.392;2022-09-25T06:10:53;18.60;;;4.95;;
33573;SDS011;20085;50.832;4.392;2022-09-25T06:13:20;12.57;;;4.75;;
33573;SDS011;20085;50.832;4.392;2022-09-25T06:15:46;20.73;;;4.70;;
33573;SDS011;20085;50.832;4.392;2022-09-25T06:18:14;16.25;;;4.78;;
33573;SDS011;20085;50.832;4.392;2022-09-25T06:20:40;12.55;;;4.72;;
33573;SDS011;20085;50.832;4.392;2022-09-25T06:23:07;14.35;;;4.75;;
33573;SDS011;20085;50.832;4.392;2022-09-25T06:25:32;11.50;;;4.97;;
33573;SDS011;20085;50.832;4.392;2022-09-25T06:27:59;14.38;;;5.18;;
33573;SDS011;20085;50.832;4.392;2022-09-25T06:30:26;14.05;;;5.00;;
33573;SDS011;20085;50.832;4.392;2022-09-25T06:33:02;14.38;;;4.43;;
33573;SDS011;20085;50.832;4.392;2022-09-25T06:35:33;14.50;;;4.80;;
33573;SDS011;20085;50.832;4.392;2022-09-25T06:38:00;14.70;;;5.22;;
33573;SDS011;20085;50.832;4.392;2022-09-25T06:40:27;17.60;;;5.85;;
33573;SDS011;20085;50.832;4.392;2022-09-25T06:42:58;13.48;;;5.55;;
33573;SDS011;20085;50.832;4.392;2022-09-25T06:45:25;15.93;;;5.88;;
33573;SDS011;20085;50.832;4.392;2022-09-25T06:47:52;15.85;;;5.60;;
33573;SDS011;20085;50.832;4.392;2022-09-25T06:50:25;16.23;;;5.65;;
33573;SDS011;20085;50.832;4.392;2022-09-25T06:52:58;16.90;;;5.60;;
33573;SDS011;20085;50.832;4.392;2022-09-25T06:55:28;15.25;;;5.30;;
33573;SDS011;20085;50.832;4.392;2022-09-25T06:57:56;18.13;;;5.30;;
33573;SDS011;20085;50.832;4.392;2022-09-25T07:00:22;12.48;;;4.78;;
33573;SDS011;20085;50.832;4.392;2022-09-25T07:02:48;14.80;;;4.97;;
33573;SDS011;20085;50.832;4.392;2022-09-25T07:05:32;16.77;;;5.72;;
33573;SDS011;20085;50.832;4.392;2022-09-25T07:07:58;15.88;;;5.93;;
33573;SDS011;20085;50.832;4.392;2022-09-25T07:10:24;13.70;;;5.18;;
33573;SDS011;20085;50.832;4.392;2022-09-25T07:12:49;15.43;;;4.70;;
33573;SDS011;20085;50.832;4.392;2022-09-25T07:15:15;18.25;;;5.40;;
33573;SDS011;20085;50.832;4.392;2022-09-25T07:17:44;12.77;;;5.13;;
33573;SDS011;20085;50.832;4.392;2022-09-25T07:20:10;12.05;;;4.70;;
33573;SDS011;20085;50.832;4.392;2022-09-25T07:22:39;14.15;;;5.13;;
33573;SDS011;20085;50.832;4.392;2022-09-25T07:25:06;11.80;;;4.75;;
33573;SDS011;20085;50.832;4.392;2022-09-25T07:27:33;10.68;;;4.50;;
33573;SDS011;20085;50.832;4.392;2022-09-25T07:29:59;11.88;;;4.97;;
33573;SDS011;20085;50.832;4.392;2022-09-25T07:32:25;12.73;;;5.07;;
33573;SDS011;20085;50.832;4.392;2022-09-25T07:34:51;14.18;;;4.88;;
33573;SDS011;20085;50.832;4.392;2022-09-25T07:37:17;13.88;;;4.90;;
33573;SDS011;20085;50.832;4.392;2022-09-25T07:39:42;13.43;;;4.88;;
33573;SDS011;20085;50.832;4.392;2022-09-25T07:42:08;15.77;;;4.78;;
33573;SDS011;20085;50.832;4.392;2022-09-25T07:44:34;11.65;;;5.15;;
33573;SDS011;20085;50.832;4.392;2022-09-25T07:47:00;13.38;;;5.00;;
33573;SDS011;20085;50.832;4.392;2022-09-25T07:49:26;14.80;;;4.65;;
33573;SDS011;20085;50.832;4.392;2022-09-25T07:51:53;18.83;;;5.05;;
33573;SDS011;20085;50.832;4.392;2022-09-25T07:54:18;17.73;;;4.80;;
33573;SDS011;20085;50.832;4.392;2022-09-25T07:56:44;14.13;;;5.22;;
33573;SDS011;20085;50.832;4.392;2022-09-25T07:59:09;18.55;;;5.25;;
33573;SDS011;20085;50.832;4.392;2022-09-25T08:01:35;13.02;;;5.00;;
33573;SDS011;20085;50.832;4.392;2022-09-25T08:04:01;13.75;;;5.22;;
33573;SDS011;20085;50.832;4.392;2022-09-25T08:06:26;16.52;;;5.70;;
33573;SDS011;20085;50.832;4.392;2022-09-25T08:08:52;11.57;;;5.55;;
33573;SDS011;20085;50.832;4.392;2022-09-25T08:11:18;13.20;;;5.38;;
33573;SDS011;20085;50.832;4.392;2022-09-25T08:13:44;12.35;;;5.00;;
33573;SDS011;20085;50.832;4.392;2022-09-25T08:16:14;22.05;;;5.60;;
33573;SDS011;20085;50.832;4.392;2022-09-25T08:18:41;14.07;;;5.63;;
33573;SDS011;20085;50.832;4.392;2022-09-25T08:21:09;13.52;;;5.20;;
33573;SDS011;20085;50.832;4.392;2022-09-25T08:23:38;14.75;;;4.50;;
33573;SDS011;20085;50.832;4.392;2022-09-25T08:26:04;16.17;;;4.50;;
33573;SDS011;20085;50.832;4.392;2022-09-25T08:28:29;10.80;;;3.42;;
33573;SDS011;20085;50.832;4.392;2022-09-25T08:30:58;14.93;;;3.78;;
33573;SDS011;20085;50.832;4.392;2022-09-25T08:33:25;9.98;;;3.58;;
33573;SDS011;20085;50.832;4.392;2022-09-25T08:35:55;9.57;;;3.60;;
33573;SDS011;20085;50.832;4.392;2022-09-25T08:38:25;13.02;;;3.47;;
33573;SDS011;20085;50.832;4.392;2022-09-25T08:40:56;9.60;;;2.88;;
33573;SDS011;20085;50.832;4.392;2022-09-25T08:43:34;10.35;;;2.65;;
33573;SDS011;20085;50.832;4.392;2022-09-25T08:46:06;11.68;;;2.70;;
33573;SDS011;20085;50.832;4.392;2022-09-25T08:49:02;12.02;;;2.50;;
33573;SDS011;20085;50.832;4.392;2022-09-25T08:51:32;13.23;;;2.22;;
33573;SDS011;20085;50.832;4.392;2022-09-25T08:54:01;7.63;;;1.90;;
33573;SDS011;20085;50.832;4.392;2022-09-25T08:56:28;8.68;;;2.47;;
33573;SDS011;20085;50.832;4.392;2022-09-25T08:59:00;9.30;;;1.92;;
33573;SDS011;20085;50.832;4.392;2022-09-25T09:01:45;11.15;;;2.28;;
33573;SDS011;20085;50.832;4.392;2022-09-25T09:07:01;7.72;;;2.00;;
33573;SDS011;20085;50.832;4.392;2022-09-25T09:09:36;8.45;;;2.60;;
33573;SDS011;20085;50.832;4.392;2022-09-25T09:12:09;8.23;;;2.50;;
33573;SDS011;20085;50.832;4.392;2022-09-25T09:14:47;9.35;;;1.88;;
33573;SDS011;20085;50.832;4.392;2022-09-25T09:17:17;9.00;;;1.95;;
33573;SDS011;20085;50.832;4.392;2022-09-25T09:19:53;11.27;;;2.00;;
33573;SDS011;20085;50.832;4.392;2022-09-25T09:22:29;11.57;;;2.60;;
33573;SDS011;20085;50.832;4.392;2022-09-25T09:30:31;7.22;;;2.08;;
33573;SDS011;20085;50.832;4.392;2022-09-25T09:35:55;9.05;;;2.25;;
33573;SDS011;20085;50.832;4.392;2022-09-25T09:38:58;7.35;;;1.67;;
33573;SDS011;20085;50.832;4.392;2022-09-25T09:44:44;8.02;;;1.83;;
33573;SDS011;20085;50.832;4.392;2022-09-25T09:52:46;5.82;;;1.60;;
33573;SDS011;20085;50.832;4.392;2022-09-25T09:55:29;9.98;;;2.38;;
33573;SDS011;20085;50.832;4.392;2022-09-25T09:58:07;8.63;;;1.95;;
33573;SDS011;20085;50.832;4.392;2022-09-25T10:00:41;9.85;;;1.95;;
33573;SDS011;20085;50.832;4.392;2022-09-25T10:03:19;4.55;;;1.65;;
33573;SDS011;20085;50.832;4.392;2022-09-25T10:05:56;7.78;;;1.90;;
33573;SDS011;20085;50.832;4.392;2022-09-25T10:08:24;6.70;;;1.70;;
33573;SDS011;20085;50.832;4.392;2022-09-25T10:10:50;9.48;;;2.20;;
33573;SDS011;20085;50.832;4.392;2022-09-25T10:15:48;10.15;;;2.50;;
33573;SDS011;20085;50.832;4.392;2022-09-25T10:18:24;8.38;;;1.85;;
33573;SDS011;20085;50.832;4.392;2022-09-25T10:21:00;10.38;;;2.00;;
33573;SDS011;20085;50.832;4.392;2022-09-25T10:23:36;10.88;;;2.45;;
33573;SDS011;20085;50.832;4.392;2022-09-25T10:28:51;11.88;;;2.38;;
33573;SDS011;20085;50.832;4.392;2022-09-25T10:31:17;9.25;;;2.25;;
33573;SDS011;20085;50.832;4.392;2022-09-25T10:36:41;7.97;;;2.13;;
33573;SDS011;20085;50.832;4.392;2022-09-25T10:42:05;8.48;;;2.10;;
33573;SDS011;20085;50.832;4.392;2022-09-25T10:44:59;7.65;;;2.42;;
33573;SDS011;20085;50.832;4.392;2022-09-25T10:47:59;8.93;;;2.60;;
33573;SDS011;20085;50.832;4.392;2022-09-25T10:53:23;6.22;;;1.92;;
33573;SDS011;20085;50.832;4.392;2022-09-25T10:55:52;10.65;;;2.20;;
33573;SDS011;20085;50.832;4.392;2022-09-25T10:58:36;8.05;;;1.85;;
33573;SDS011;20085;50.832;4.392;2022-09-25T11:01:03;4.50;;;1.90;;
33573;SDS011;20085;50.832;4.392;2022-09-25T11:03:33;7.82;;;2.20;;
33573;SDS011;20085;50.832;4.392;2022-09-25T11:06:09;6.22;;;2.42;;
33573;SDS011;20085;50.832;4.392;2022-09-25T11:08:45;11.75;;;2.53;;
33573;SDS011;20085;50.832;4.392;2022-09-25T11:11:32;6.10;;;2.13;;
33573;SDS011;20085;50.832;4.392;2022-09-25T11:13:59;7.13;;;2.40;;
33573;SDS011;20085;50.832;4.392;2022-09-25T11:16:47;8.65;;;2.60;;
33573;SDS011;20085;50.832;4.392;2022-09-25T11:27:37;8.07;;;2.67;;
33573;SDS011;20085;50.832;4.392;2022-09-25T11:30:14;10.93;;;2.63;;
33573;SDS011;20085;50.832;4.392;2022-09-25T11:41:31;8.98;;;2.83;;
33573;SDS011;20085;50.832;4.392;2022-09-25T11:49:27;6.85;;;2.70;;
33573;SDS011;20085;50.832;4.392;2022-09-25T11:54:51;8.70;;;2.65;;
33573;SDS011;20085;50.832;4.392;2022-09-25T12:11:58;13.07;;;3.42;;
33573;SDS011;20085;50.832;4.392;2022-09-25T12:36:56;6.70;;;2.00;;
33573;SDS011;20085;50.832;4.392;2022-09-25T12:39:55;8.95;;;3.38;;
33573;SDS011;20085;50.832;4.392;2022-09-25T12:42:38;6.20;;;1.85;;
33573;SDS011;20085;50.832;4.392;2022-09-25T12:45:16;11.05;;;2.10;;
33573;SDS011;20085;50.832;4.392;2022-09-25T12:48:08;6.97;;;1.65;;
33573;SDS011;20085;50.832;4.392;2022-09-25T12:53:47;7.88;;;1.80;;
33573;SDS011;20085;50.832;4.392;2022-09-25T12:56:41;6.60;;;1.70;;
33573;SDS011;20085;50.832;4.392;2022-09-25T13:09:56;6.95;;;2.17;;
33573;SDS011;20085;50.832;4.392;2022-09-25T13:12:33;11.00;;;3.00;;
33573;SDS011;20085;50.832;4.392;2022-09-25T13:15:10;7.47;;;2.58;;
33573;SDS011;20085;50.832;4.392;2022-09-25T13:17:40;9.13;;;1.95;;
33573;SDS011;20085;50.832;4.392;2022-09-25T13:22:50;7.15;;;1.70;;
33573;SDS011;20085;50.832;4.392;2022-09-25T13:25:39;5.80;;;1.73;;
33573;SDS011;20085;50.832;4.392;2022-09-25T13:28:32;5.88;;;1.77;;
33573;SDS011;20085;50.832;4.392;2022-09-25T13:31:05;5.68;;;1.70;;
33573;SDS011;20085;50.832;4.392;2022-09-25T13:33:37;4.45;;;1.60;;
33573;SDS011;20085;50.832;4.392;2022-09-25T13:36:51;5.60;;;2.10;;
33573;SDS011;20085;50.832;4.392;2022-09-25T13:39:13;7.03;;;1.98;;
33573;SDS011;20085;50.832;4.392;2022-09-25T13:44:56;4.45;;;1.73;;
33573;SDS011;20085;50.832;4.392;2022-09-25T13:50:16;8.63;;;1.92;;
33573;SDS011;20085;50.832;4.392;2022-09-25T14:00:24;6.50;;;2.08;;
33573;SDS011;20085;50.832;4.392;2022-09-25T14:06:03;4.88;;;1.50;;
33573;SDS011;20085;50.832;4.392;2022-09-25T14:08:37;5.20;;;1.60;;
33573;SDS011;20085;50.832;4.392;2022-09-25T14:11:06;6.63;;;1.48;;
33573;SDS011;20085;50.832;4.392;2022-09-25T14:13:35;5.95;;;1.40;;
33573;SDS011;20085;50.832;4.392;2022-09-25T14:16:01;5.38;;;1.60;;
33573;SDS011;20085;50.832;4.392;2022-09-25T14:18:38;4.88;;;1.45;;
33573;SDS011;20085;50.832;4.392;2022-09-25T14:21:12;5.05;;;1.60;;
33573;SDS011;20085;50.832;4.392;2022-09-25T14:23:55;6.07;;;1.73;;
33573;SDS011;20085;50.832;4.392;2022-09-25T14:26:36;5.78;;;1.75;;
33573;SDS011;20085;50.832;4.392;2022-09-25T14:29:16;6.88;;;1.58;;
33573;SDS011;20085;50.832;4.392;2022-09-25T14:31:49;5.80;;;2.00;;
33573;SDS011;20085;50.832;4.392;2022-09-25T14:46:35;3.95;;;1.52;;
33573;SDS011;20085;50.832;4.392;2022-09-25T14:51:07;5.75;;;1.52;;
33573;SDS011;20085;50.832;4.392;2022-09-25T14:53:45;3.97;;;1.33;;
33573;SDS011;20085;50.832;4.392;2022-09-25T14:56:17;4.93;;;1.70;;
33573;SDS011;20085;50.832;4.392;2022-09-25T14:58:47;7.63;;;2.20;;
33573;SDS011;20085;50.832;4.392;2022-09-25T15:03:55;4.35;;;1.58;;
33573;SDS011;20085;50.832;4.392;2022-09-25T15:06:33;6.30;;;1.85;;
33573;SDS011;20085;50.832;4.392;2022-09-25T15:09:17;4.45;;;1.63;;
33573;SDS011;20085;50.832;4.392;2022-09-25T15:11:59;7.35;;;2.00;;
33573;SDS011;20085;50.832;4.392;2022-09-25T15:14:39;6.57;;;1.83;;
33573;SDS011;20085;50.832;4.392;2022-09-25T15:17:05;6.78;;;1.60;;
33573;SDS011;20085;50.832;4.392;2022-09-25T15:19:47;6.13;;;1.60;;
33573;SDS011;20085;50.832;4.392;2022-09-25T15:22:17;7.57;;;1.52;;
33573;SDS011;20085;50.832;4.392;2022-09-25T15:24:48;5.13;;;1.52;;
33573;SDS011;20085;50.832;4.392;2022-09-25T15:27:18;4.78;;;1.33;;
33573;SDS011;20085;50.832;4.392;2022-09-25T15:29:45;3.90;;;1.30;;
33573;SDS011;20085;50.832;4.392;2022-09-25T15:32:25;5.35;;;1.65;;
33573;SDS011;20085;50.832;4.392;2022-09-25T15:35:13;4.50;;;1.40;;
33573;SDS011;20085;50.832;4.392;2022-09-25T15:37:46;4.43;;;1.40;;
33573;SDS011;20085;50.832;4.392;2022-09-25T15:42:44;5.72;;;1.38;;
33573;SDS011;20085;50.832;4.392;2022-09-25T15:47:52;4.43;;;1.30;;
33573;SDS011;20085;50.832;4.392;2022-09-25T15:50:27;3.55;;;1.30;;
33573;SDS011;20085;50.832;4.392;2022-09-25T15:52:56;5.30;;;1.25;;
33573;SDS011;20085;50.832;4.392;2022-09-25T15:55:24;3.33;;;1.23;;
33573;SDS011;20085;50.832;4.392;2022-09-25T15:57:53;4.72;;;1.30;;
33573;SDS011;20085;50.832;4.392;2022-09-25T16:00:24;9.13;;;2.03;;
33573;SDS011;20085;50.832;4.392;2022-09-25T16:05:55;5.68;;;2.00;;
33573;SDS011;20085;50.832;4.392;2022-09-25T16:08:34;5.30;;;1.80;;
33573;SDS011;20085;50.832;4.392;2022-09-25T16:11:05;6.72;;;2.22;;
33573;SDS011;20085;50.832;4.392;2022-09-25T16:16:53;8.38;;;2.20;;
33573;SDS011;20085;50.832;4.392;2022-09-25T16:21:51;6.25;;;2.17;;
33573;SDS011;20085;50.832;4.392;2022-09-25T16:24:18;5.55;;;2.05;;
33573;SDS011;20085;50.832;4.392;2022-09-25T16:26:53;6.05;;;2.00;;
33573;SDS011;20085;50.832;4.392;2022-09-25T16:29:27;9.05;;;2.20;;
33573;SDS011;20085;50.832;4.392;2022-09-25T16:32:05;5.10;;;2.28;;
33573;SDS011;20085;50.832;4.392;2022-09-25T16:34:39;6.13;;;2.10;;
33573;SDS011;20085;50.832;4.392;2022-09-25T16:37:06;6.50;;;2.10;;
33573;SDS011;20085;50.832;4.392;2022-09-25T16:39:43;5.70;;;2.20;;
33573;SDS011;20085;50.832;4.392;2022-09-25T16:45:11;7.80;;;2.40;;
33573;SDS011;20085;50.832;4.392;2022-09-25T16:47:47;5.00;;;2.08;;
33573;SDS011;20085;50.832;4.392;2022-09-25T16:50:14;5.82;;;2.08;;
33573;SDS011;20085;50.832;4.392;2022-09-25T16:52:40;6.70;;;2.67;;
33573;SDS011;20085;50.832;4.392;2022-09-25T16:55:13;5.88;;;2.53;;
33573;SDS011;20085;50.832;4.392;2022-09-25T16:57:41;8.88;;;2.75;;
33573;SDS011;20085;50.832;4.392;2022-09-25T17:00:11;8.98;;;2.58;;
33573;SDS011;20085;50.832;4.392;2022-09-25T17:02:40;11.38;;;2.95;;
33573;SDS011;20085;50.832;4.392;2022-09-25T17:05:11;8.35;;;2.72;;
33573;SDS011;20085;50.832;4.392;2022-09-25T17:07:45;8.63;;;2.75;;
33573;SDS011;20085;50.832;4.392;2022-09-25T17:10:17;7.60;;;2.58;;
33573;SDS011;20085;50.832;4.392;2022-09-25T17:12:45;7.78;;;3.13;;
33573;SDS011;20085;50.832;4.392;2022-09-25T17:15:13;8.02;;;2.95;;
33573;SDS011;20085;50.832;4.392;2022-09-25T17:17:45;7.43;;;2.80;;
33573;SDS011;20085;50.832;4.392;2022-09-25T17:20:11;6.68;;;2.40;;
33573;SDS011;20085;50.832;4.392;2022-09-25T17:22:37;6.68;;;2.78;;
33573;SDS011;20085;50.832;4.392;2022-09-25T17:25:07;7.15;;;2.53;;
33573;SDS011;20085;50.832;4.392;2022-09-25T17:27:43;13.52;;;2.63;;
33573;SDS011;20085;50.832;4.392;2022-09-25T17:30:08;9.00;;;3.13;;
33573;SDS011;20085;50.832;4.392;2022-09-25T17:32:34;9.02;;;2.85;;
33573;SDS011;20085;50.832;4.392;2022-09-25T17:35:01;9.15;;;3.05;;
33573;SDS011;20085;50.832;4.392;2022-09-25T17:37:32;8.38;;;3.03;;
33573;SDS011;20085;50.832;4.392;2022-09-25T17:39:58;10.15;;;3.42;;
33573;SDS011;20085;50.832;4.392;2022-09-25T17:42:23;6.55;;;3.10;;
33573;SDS011;20085;50.832;4.392;2022-09-25T17:44:50;8.82;;;3.03;;
33573;SDS011;20085;50.832;4.392;2022-09-25T17:47:16;6.53;;;3.13;;
33573;SDS011;20085;50.832;4.392;2022-09-25T17:49:41;8.70;;;2.88;;
33573;SDS011;20085;50.832;4.392;2022-09-25T17:52:08;10.88;;;3.00;;
33573;SDS011;20085;50.832;4.392;2022-09-25T17:54:38;9.27;;;3.30;;
33573;SDS011;20085;50.832;4.392;2022-09-25T17:57:04;9.85;;;3.13;;
33573;SDS011;20085;50.832;4.392;2022-09-25T17:59:29;9.82;;;3.40;;
33573;SDS011;20085;50.832;4.392;2022-09-25T18:01:55;8.68;;;3.40;;
33573;SDS011;20085;50.832;4.392;2022-09-25T18:04:23;9.73;;;3.33;;
33573;SDS011;20085;50.832;4.392;2022-09-25T18:06:49;12.95;;;3.33;;
33573;SDS011;20085;50.832;4.392;2022-09-25T18:09:15;7.32;;;3.20;;
33573;SDS011;20085;50.832;4.392;2022-09-25T18:11:41;8.32;;;3.33;;
33573;SDS011;20085;50.832;4.392;2022-09-25T18:14:08;8.57;;;3.70;;